Time;durP1;ratioP1;P1;durP2;ratioP2;P2;SDS_P1;SDS_P2;PMS_P1;PMS_P2;Temp;Humidity;BMP_temperature;BMP_pressure;BME280_temperature;BME280_humidity;BME280_pressure;Samples;Min_cycle;Max_cycle;Signal;HPM_P1;HPM_P2
2021/12/28 00:00:21;;;;;;;7.63;5.10;;;7.70;99.90;;;;;;5094023;28;20020;-72
2021/12/28 00:02:47;;;;;;;7.05;5.30;;;7.70;99.90;;;;;;5093921;28;20043;-73
2021/12/28 00:05:14;;;;;;;6.97;5.35;;;7.70;99.90;;;;;;5076609;28;20389;-72
2021/12/28 00:07:41;;;;;;;6.05;4.90;;;7.80;99.90;;;;;;5093768;28;20103;-73
2021/12/28 00:10:10;;;;;;;5.32;4.63;;;7.80;99.90;;;;;;5077001;28;20032;-73
2021/12/28 00:12:37;;;;;;;6.05;4.47;;;7.70;99.90;;;;;;5093317;28;20031;-73
2021/12/28 00:15:19;;;;;;;7.47;4.57;;;7.70;99.90;;;;;;5092977;28;20040;-73
2021/12/28 00:18:17;;;;;;;6.57;4.97;;;7.70;99.90;;;;;;5093280;28;20500;-73
2021/12/28 00:20:35;;;;;;;6.85;3.92;;;7.70;99.90;;;;;;5093574;28;20043;-73
2021/12/28 00:23:04;;;;;;;6.88;4.22;;;7.70;99.90;;;;;;5093413;28;20093;-73
2021/12/28 00:25:30;;;;;;;3.90;3.53;;;7.70;99.90;;;;;;5093481;28;20565;-73
2021/12/28 00:27:56;;;;;;;4.38;3.75;;;7.70;99.90;;;;;;5093031;28;20076;-73
2021/12/28 00:30:22;;;;;;;4.05;3.53;;;7.70;99.90;;;;;;5093351;28;20028;-73
2021/12/28 00:32:52;;;;;;;5.43;4.07;;;7.70;99.90;;;;;;5076086;28;20028;-73
2021/12/28 00:35:21;;;;;;;4.28;3.40;;;7.70;99.90;;;;;;5092830;28;20074;-73
2021/12/28 00:37:46;;;;;;;3.25;2.95;;;7.70;99.90;;;;;;5094434;28;20099;-73
2021/12/28 00:40:12;;;;;;;5.55;3.30;;;7.80;99.90;;;;;;5093106;28;20507;-73
2021/12/28 00:42:38;;;;;;;4.03;3.13;;;7.80;99.90;;;;;;5075983;28;20054;-73
2021/12/28 00:45:04;;;;;;;5.00;3.22;;;7.80;99.90;;;;;;5093375;28;20055;-74
2021/12/28 00:47:30;;;;;;;3.63;2.97;;;7.80;99.90;;;;;;5076750;28;20031;-73
2021/12/28 00:49:56;;;;;;;3.45;2.83;;;7.80;99.90;;;;;;5092721;28;20024;-73
2021/12/28 00:52:22;;;;;;;6.28;3.10;;;7.80;99.90;;;;;;5093301;28;20358;-73
2021/12/28 00:54:47;;;;;;;3.47;2.88;;;7.80;99.90;;;;;;5075653;28;20027;-73
2021/12/28 00:57:13;;;;;;;6.15;2.90;;;7.80;99.90;;;;;;5093231;28;20117;-73
2021/12/28 00:59:38;;;;;;;4.80;3.15;;;7.90;99.90;;;;;;5092937;28;20370;-73
2021/12/28 01:02:04;;;;;;;6.97;3.40;;;7.90;99.90;;;;;;5076182;28;20487;-73
2021/12/28 01:04:31;;;;;;;5.28;2.95;;;7.90;99.90;;;;;;5075683;28;20031;-73
2021/12/28 01:06:56;;;;;;;4.43;3.25;;;8.00;99.90;;;;;;5092442;28;20027;-73
2021/12/28 01:09:29;;;;;;;4.65;3.33;;;8.00;99.90;;;;;;5092621;28;20111;-74
2021/12/28 01:11:54;;;;;;;5.65;3.58;;;8.00;99.90;;;;;;5076665;28;20055;-73
2021/12/28 01:14:20;;;;;;;4.18;3.17;;;8.00;99.90;;;;;;5092676;28;20075;-73
2021/12/28 01:16:45;;;;;;;6.13;3.17;;;8.00;99.90;;;;;;5075555;28;20117;-73
2021/12/28 01:19:11;;;;;;;5.70;3.53;;;8.00;99.90;;;;;;5093002;28;20017;-73
2021/12/28 01:21:37;;;;;;;9.15;3.88;;;8.00;99.90;;;;;;5092608;28;20024;-73
2021/12/28 01:24:03;;;;;;;5.15;3.60;;;8.10;99.90;;;;;;5094134;28;20032;-72
2021/12/28 01:26:29;;;;;;;8.10;3.75;;;8.10;99.90;;;;;;5093812;28;20392;-73
2021/12/28 01:28:54;;;;;;;8.13;3.80;;;8.10;99.90;;;;;;5093808;28;20380;-72
2021/12/28 01:31:20;;;;;;;6.10;3.75;;;8.10;99.90;;;;;;5075466;28;20025;-73
2021/12/28 01:33:45;;;;;;;7.15;3.72;;;8.00;99.90;;;;;;5092227;28;20077;-72
2021/12/28 01:36:11;;;;;;;7.53;3.55;;;8.00;99.90;;;;;;5092203;28;20074;-73
2021/12/28 01:38:36;;;;;;;6.63;3.80;;;7.90;99.90;;;;;;5092195;28;20012;-73
2021/12/28 01:41:02;;;;;;;6.95;4.10;;;7.80;99.90;;;;;;5092948;28;20031;-73
2021/12/28 01:43:28;;;;;;;7.45;3.65;;;7.70;99.90;;;;;;5075285;28;20026;-73
2021/12/28 01:45:56;;;;;;;7.82;4.10;;;7.70;99.90;;;;;;5092080;28;20035;-72
2021/12/28 01:48:29;;;;;;;7.43;3.95;;;7.60;99.90;;;;;;5092154;28;20024;-73
2021/12/28 01:51:01;;;;;;;6.20;3.40;;;7.60;99.90;;;;;;5092076;28;20035;-73
2021/12/28 01:53:27;;;;;;;5.72;3.75;;;7.60;99.90;;;;;;5092042;28;20065;-73
2021/12/28 01:55:56;;;;;;;6.00;3.50;;;7.50;99.90;;;;;;5092292;28;20035;-73
2021/12/28 01:58:22;;;;;;;6.15;3.50;;;7.40;99.90;;;;;;5093753;28;20021;-73
2021/12/28 02:00:50;;;;;;;6.93;4.57;;;7.30;99.90;;;;;;5092273;28;20028;-73
2021/12/28 02:03:18;;;;;;;8.38;4.30;;;7.30;99.90;;;;;;5093730;28;20020;-73
2021/12/28 02:05:44;;;;;;;9.18;4.70;;;7.20;99.90;;;;;;5092316;28;20024;-73
2021/12/28 02:08:12;;;;;;;7.78;4.38;;;7.30;99.90;;;;;;5093659;28;20034;-73
2021/12/28 02:10:40;;;;;;;10.95;4.82;;;7.10;99.90;;;;;;5076244;28;20032;-73
2021/12/28 02:13:06;;;;;;;6.30;4.40;;;7.20;99.90;;;;;;5093655;28;20505;-73
2021/12/28 02:15:35;;;;;;;8.70;4.80;;;7.10;99.90;;;;;;5092903;28;20128;-72
2021/12/28 02:18:00;;;;;;;10.35;4.68;;;7.00;99.90;;;;;;5093620;28;20020;-73
2021/12/28 02:20:26;;;;;;;6.78;4.50;;;7.10;99.90;;;;;;5093311;28;20423;-73
2021/12/28 02:22:51;;;;;;;10.38;4.88;;;7.00;99.90;;;;;;5096018;28;20029;-72
2021/12/28 02:25:18;;;;;;;11.18;6.25;;;6.90;99.90;;;;;;5095752;28;20028;-72
2021/12/28 02:27:45;;;;;;;13.23;5.97;;;6.90;99.90;;;;;;5096916;28;20021;-72
2021/12/28 02:30:15;;;;;;;9.10;5.40;;;6.80;99.90;;;;;;5095689;28;20139;-72
2021/12/28 02:32:42;;;;;;;11.07;5.90;;;6.80;99.90;;;;;;5095243;28;20024;-73
2021/12/28 02:35:12;;;;;;;11.45;6.57;;;6.70;99.90;;;;;;5078480;28;20028;-73
2021/12/28 02:37:38;;;;;;;15.35;7.32;;;6.80;99.90;;;;;;5096701;28;20073;-72
2021/12/28 02:40:06;;;;;;;11.30;7.25;;;6.80;99.90;;;;;;5095502;28;20107;-72
2021/12/28 02:42:31;;;;;;;15.25;7.25;;;6.70;99.90;;;;;;5096327;28;20035;-72
2021/12/28 02:45:02;;;;;;;12.90;7.05;;;6.70;99.90;;;;;;5096836;28;20024;-72
2021/12/28 02:47:28;;;;;;;13.45;7.07;;;6.60;99.90;;;;;;5096829;28;20024;-73
2021/12/28 02:49:54;;;;;;;16.08;7.10;;;6.60;99.90;;;;;;5095578;28;20035;-73
2021/12/28 02:52:20;;;;;;;11.40;6.53;;;6.50;99.90;;;;;;5096685;28;20465;-72
2021/12/28 02:54:46;;;;;;;17.38;7.07;;;6.40;99.90;;;;;;5095164;28;20024;-73
2021/12/28 02:57:11;;;;;;;16.63;6.10;;;6.30;99.90;;;;;;5095430;28;20024;-72
2021/12/28 02:59:45;;;;;;;12.40;6.50;;;6.10;99.90;;;;;;5094777;28;20024;-73
2021/12/28 03:02:11;;;;;;;11.02;6.25;;;5.90;99.90;;;;;;5078463;28;20016;-72
2021/12/28 03:04:36;;;;;;;12.55;7.05;;;5.90;99.90;;;;;;5095343;28;20510;-72
2021/12/28 03:07:02;;;;;;;13.73;6.35;;;5.90;99.90;;;;;;5096350;28;20031;-72
2021/12/28 03:09:27;;;;;;;13.35;6.45;;;6.00;99.90;;;;;;5096129;28;20028;-73
2021/12/28 03:11:53;;;;;;;16.55;6.43;;;5.90;99.90;;;;;;5095767;28;20081;-72
2021/12/28 03:14:18;;;;;;;10.07;6.10;;;5.90;99.90;;;;;;5095860;28;20044;-72
2021/12/28 03:16:44;;;;;;;15.65;7.25;;;5.80;99.90;;;;;;5077615;28;20016;-72
2021/12/28 03:19:10;;;;;;;12.43;7.05;;;5.80;99.90;;;;;;5095895;28;20074;-72
2021/12/28 03:21:35;;;;;;;17.05;7.45;;;5.80;99.90;;;;;;5094692;28;20031;-72
2021/12/28 03:24:02;;;;;;;15.88;7.65;;;5.90;99.90;;;;;;5094302;28;20472;-72
2021/12/28 03:26:27;;;;;;;14.40;7.80;;;5.90;99.90;;;;;;5077412;28;20031;-72
2021/12/28 03:28:53;;;;;;;17.80;7.68;;;5.90;99.90;;;;;;5094176;28;20021;-72
2021/12/28 03:31:20;;;;;;;16.67;7.65;;;6.00;99.90;;;;;;5094474;28;20032;-72
2021/12/28 03:33:48;;;;;;;18.02;8.27;;;6.00;99.90;;;;;;5095935;28;20032;-72
2021/12/28 03:36:16;;;;;;;25.05;9.07;;;6.00;99.90;;;;;;5094431;28;20027;-72
2021/12/28 03:38:44;;;;;;;19.23;9.30;;;6.10;99.90;;;;;;5077335;28;20422;-72
2021/12/28 03:41:10;;;;;;;16.02;7.97;;;6.10;99.90;;;;;;5093971;28;20024;-72
2021/12/28 03:43:38;;;;;;;19.27;8.40;;;6.20;99.90;;;;;;5095414;28;20099;-72
2021/12/28 03:46:05;;;;;;;20.88;8.95;;;6.30;99.90;;;;;;5094220;28;20474;-72
2021/12/28 03:48:31;;;;;;;23.23;8.70;;;6.30;99.90;;;;;;5094617;28;20032;-72
2021/12/28 03:50:56;;;;;;;19.63;8.38;;;6.40;99.90;;;;;;5093803;28;20385;-72
2021/12/28 03:53:22;;;;;;;17.65;8.18;;;6.40;99.90;;;;;;5094971;28;20036;-72
2021/12/28 03:55:47;;;;;;;23.05;7.97;;;6.40;99.90;;;;;;5095108;28;20036;-72
2021/12/28 03:58:13;;;;;;;18.08;7.35;;;6.40;99.90;;;;;;5094238;28;20062;-73
2021/12/28 04:00:44;;;;;;;16.48;7.38;;;6.40;99.90;;;;;;5094132;28;20024;-72
2021/12/28 04:03:10;;;;;;;19.90;8.07;;;6.50;99.90;;;;;;5077049;28;20020;-72
2021/12/28 04:05:37;;;;;;;19.15;7.78;;;6.50;99.90;;;;;;5076583;28;20020;-73
2021/12/28 04:08:03;;;;;;;23.17;8.38;;;6.50;99.90;;;;;;5093827;28;20088;-73
2021/12/28 04:10:31;;;;;;;17.63;7.68;;;6.50;99.90;;;;;;5076495;28;20056;-72
2021/12/28 04:12:58;;;;;;;17.08;7.10;;;6.60;99.90;;;;;;5094042;28;20024;-72
2021/12/28 04:15:24;;;;;;;13.70;7.15;;;6.50;99.90;;;;;;5093183;28;20127;-72
2021/12/28 04:17:50;;;;;;;20.85;7.88;;;6.50;99.90;;;;;;5076397;28;20158;-72
2021/12/28 04:20:19;;;;;;;24.10;8.30;;;6.50;99.90;;;;;;5093594;28;20020;-72
2021/12/28 04:22:45;;;;;;;23.25;7.50;;;6.50;99.90;;;;;;5093547;28;20111;-72
2021/12/28 04:25:14;;;;;;;18.10;7.22;;;6.50;99.90;;;;;;5076277;28;20028;-73
2021/12/28 04:27:40;;;;;;;18.33;6.63;;;6.40;99.90;;;;;;5093461;28;20024;-72
2021/12/28 04:30:08;;;;;;;21.92;7.78;;;6.40;99.90;;;;;;5093053;28;20020;-72
2021/12/28 04:32:34;;;;;;;21.13;6.47;;;6.40;99.90;;;;;;5076123;28;20074;-72
2021/12/28 04:35:00;;;;;;;23.65;6.90;;;6.40;99.90;;;;;;5075978;28;20032;-72
2021/12/28 04:37:26;;;;;;;22.17;6.65;;;6.40;99.90;;;;;;5094731;28;20077;-72
2021/12/28 04:39:51;;;;;;;21.80;6.43;;;6.40;99.90;;;;;;5076047;28;20016;-72
2021/12/28 04:42:17;;;;;;;21.77;6.03;;;6.40;99.90;;;;;;5094672;28;20112;-72
2021/12/28 04:44:43;;;;;;;23.65;5.78;;;6.40;99.90;;;;;;5092728;28;20036;-73
2021/12/28 04:47:09;;;;;;;25.85;5.93;;;6.50;99.90;;;;;;5093098;28;20024;-72
2021/12/28 04:49:34;;;;;;;18.58;6.18;;;6.50;99.90;;;;;;5093069;28;20030;-72
2021/12/28 04:52:01;;;;;;;15.75;5.00;;;6.50;99.90;;;;;;5076367;28;20035;-72
2021/12/28 04:54:27;;;;;;;22.23;7.07;;;6.50;99.90;;;;;;5093238;28;20425;-72
2021/12/28 04:56:53;;;;;;;26.38;5.70;;;6.50;99.90;;;;;;5075824;28;20116;-73
2021/12/28 04:59:18;;;;;;;26.85;6.35;;;6.50;99.90;;;;;;5092557;28;20027;-72
2021/12/28 05:01:45;;;;;;;18.17;6.10;;;6.50;99.90;;;;;;5093403;28;20031;-72
2021/12/28 05:04:11;;;;;;;23.75;6.18;;;6.50;99.90;;;;;;5094012;28;20020;-72
2021/12/28 05:06:37;;;;;;;25.10;6.55;;;6.50;99.90;;;;;;5076228;28;20043;-73
2021/12/28 05:09:05;;;;;;;25.02;5.75;;;6.50;99.90;;;;;;5094266;28;20103;-72
2021/12/28 05:11:32;;;;;;;25.80;5.90;;;6.50;99.90;;;;;;5092452;28;20020;-72
2021/12/28 05:13:59;;;;;;;18.90;5.40;;;6.60;99.90;;;;;;5075530;28;20046;-72
2021/12/28 05:16:28;;;;;;;31.35;5.82;;;6.60;99.90;;;;;;5092405;28;20028;-72
2021/12/28 05:18:54;;;;;;;19.05;5.88;;;6.60;99.90;;;;;;5093907;28;20399;-72
2021/12/28 05:21:20;;;;;;;24.00;5.93;;;6.60;99.90;;;;;;5094157;28;20023;-72
2021/12/28 05:23:45;;;;;;;25.05;5.30;;;6.50;99.90;;;;;;5092967;28;20499;-73
2021/12/28 05:26:11;;;;;;;28.10;7.43;;;6.60;99.90;;;;;;5092281;28;20086;-73
2021/12/28 05:28:36;;;;;;;22.15;5.65;;;6.50;99.90;;;;;;5094087;28;20036;-72
2021/12/28 05:31:02;;;;;;;23.13;5.68;;;6.50;99.90;;;;;;5075425;28;20024;-72
2021/12/28 05:33:28;;;;;;;24.48;6.00;;;6.50;99.90;;;;;;5094039;28;20453;-72
2021/12/28 05:35:54;;;;;;;22.08;5.63;;;6.40;99.90;;;;;;5092121;28;20077;-72
2021/12/28 05:38:19;;;;;;;27.27;5.95;;;6.40;99.90;;;;;;5075393;28;20462;-72
2021/12/28 05:40:45;;;;;;;33.30;6.22;;;6.40;99.90;;;;;;5092510;28;20024;-72
2021/12/28 05:43:10;;;;;;;25.65;6.10;;;6.30;99.90;;;;;;5092139;28;20067;-72
2021/12/28 05:45:36;;;;;;;29.67;5.97;;;6.30;99.90;;;;;;5093921;28;20067;-72
2021/12/28 05:48:01;;;;;;;36.97;5.97;;;6.30;99.90;;;;;;5092439;28;20034;-72
2021/12/28 05:50:27;;;;;;;17.77;5.20;;;6.30;99.90;;;;;;5092750;28;20407;-72
2021/12/28 05:52:53;;;;;;;31.65;7.07;;;6.20;99.90;;;;;;5075271;28;20074;-72
2021/12/28 05:55:18;;;;;;;27.15;6.05;;;6.30;99.90;;;;;;5075187;28;20423;-72
2021/12/28 05:57:44;;;;;;;24.35;6.15;;;6.30;99.90;;;;;;5095370;28;20473;-72
2021/12/28 06:00:11;;;;;;;26.17;5.47;;;6.30;99.90;;;;;;5079602;28;20023;-72
2021/12/28 06:02:37;;;;;;;26.10;5.80;;;6.40;99.90;;;;;;5079231;28;20446;-72
2021/12/28 06:05:04;;;;;;;28.05;6.80;;;6.60;99.90;;;;;;5096197;28;20103;-72
2021/12/28 06:07:29;;;;;;;29.75;6.82;;;6.60;99.90;;;;;;5095735;28;20511;-72
2021/12/28 06:09:56;;;;;;;22.42;6.28;;;6.70;99.90;;;;;;5096103;28;20032;-72
2021/12/28 06:12:23;;;;;;;28.33;6.07;;;6.70;99.90;;;;;;5095651;28;20052;-72
2021/12/28 06:14:48;;;;;;;29.35;6.45;;;6.70;99.90;;;;;;5078667;28;20044;-72
2021/12/28 06:17:14;;;;;;;18.73;5.35;;;6.70;99.90;;;;;;5079506;28;20021;-72
2021/12/28 06:19:39;;;;;;;24.38;6.07;;;6.60;99.90;;;;;;5095501;28;20036;-72
2021/12/28 06:22:05;;;;;;;21.77;5.88;;;6.60;99.90;;;;;;5097320;28;20024;-72
2021/12/28 06:24:30;;;;;;;35.28;6.10;;;6.60;99.90;;;;;;5097005;28;20397;-72
2021/12/28 06:26:56;;;;;;;25.90;6.18;;;6.70;99.90;;;;;;5095808;28;20541;-72
2021/12/28 06:29:22;;;;;;;27.05;5.97;;;6.70;99.90;;;;;;5078491;28;20512;-72
2021/12/28 06:31:47;;;;;;;36.15;6.57;;;6.70;99.90;;;;;;5095679;28;20528;-72
2021/12/28 06:34:13;;;;;;;23.98;5.93;;;6.70;99.90;;;;;;5096434;28;20077;-71
2021/12/28 06:36:39;;;;;;;23.40;6.43;;;6.60;99.90;;;;;;5078878;28;20381;-72
2021/12/28 06:39:05;;;;;;;30.23;6.90;;;6.70;99.90;;;;;;5095974;28;20024;-72
2021/12/28 06:41:30;;;;;;;29.00;7.20;;;6.70;99.90;;;;;;5096683;28;20480;-72
2021/12/28 06:43:56;;;;;;;26.88;6.93;;;6.60;99.90;;;;;;5095741;28;20055;-72
2021/12/28 06:46:22;;;;;;;31.38;6.90;;;6.60;99.90;;;;;;5096820;28;20453;-73
2021/12/28 06:48:47;;;;;;;24.90;5.97;;;6.60;99.90;;;;;;5096543;28;20024;-72
2021/12/28 06:51:14;;;;;;;34.63;7.10;;;6.50;99.90;;;;;;5095020;28;20389;-72
2021/12/28 06:53:40;;;;;;;30.20;7.13;;;6.50;99.90;;;;;;5096380;28;20027;-72
2021/12/28 06:56:06;;;;;;;39.08;7.30;;;6.50;99.90;;;;;;5095008;28;20077;-72
2021/12/28 06:58:32;;;;;;;27.30;7.07;;;6.50;99.90;;;;;;5096597;28;20023;-72
2021/12/28 07:00:58;;;;;;;27.85;6.78;;;6.40;99.90;;;;;;5096581;28;20025;-72
2021/12/28 07:03:23;;;;;;;33.33;7.35;;;6.40;99.90;;;;;;5095057;28;20032;-72
2021/12/28 07:05:49;;;;;;;29.85;7.80;;;6.50;99.90;;;;;;5078329;28;20127;-72
2021/12/28 07:08:15;;;;;;;37.25;8.23;;;6.50;99.90;;;;;;5094303;28;20086;-74
2021/12/28 07:10:41;;;;;;;30.33;7.90;;;6.60;99.90;;;;;;5095415;28;20173;-72
2021/12/28 07:13:07;;;;;;;25.75;7.65;;;6.60;99.90;;;;;;5077759;28;20145;-72
2021/12/28 07:15:32;;;;;;;33.72;7.72;;;6.60;99.90;;;;;;5094461;28;20040;-73
2021/12/28 07:17:58;;;;;;;49.33;7.82;;;6.60;99.90;;;;;;5094742;28;20023;-72
2021/12/28 07:20:24;;;;;;;41.00;9.00;;;6.60;99.90;;;;;;5094796;28;20024;-72
2021/12/28 07:22:49;;;;;;;30.67;8.10;;;6.60;99.90;;;;;;5096097;28;20035;-72
2021/12/28 07:25:15;;;;;;;26.55;8.43;;;6.70;99.90;;;;;;5095810;28;20020;-72
2021/12/28 07:27:41;;;;;;;30.67;8.45;;;6.80;99.90;;;;;;5095675;28;20043;-72
2021/12/28 07:30:09;;;;;;;27.58;8.23;;;6.80;99.90;;;;;;5096001;28;20365;-72
2021/12/28 07:32:36;;;;;;;29.73;8.40;;;6.90;99.90;;;;;;5094510;28;20032;-72
2021/12/28 07:35:01;;;;;;;20.13;7.07;;;6.90;99.90;;;;;;5095802;28;20054;-73
2021/12/28 07:37:27;;;;;;;23.23;6.82;;;6.90;99.90;;;;;;5094691;28;20099;-72
2021/12/28 07:39:53;;;;;;;27.67;6.82;;;6.90;99.90;;;;;;5078002;28;20020;-73
2021/12/28 07:42:19;;;;;;;25.20;7.15;;;7.00;99.90;;;;;;5094261;28;20028;-72
2021/12/28 07:44:45;;;;;;;25.17;6.63;;;7.00;99.90;;;;;;5095514;28;20039;-72
2021/12/28 07:47:10;;;;;;;24.88;7.32;;;7.00;99.90;;;;;;5093822;28;20024;-72
2021/12/28 07:49:36;;;;;;;18.52;6.95;;;7.00;99.90;;;;;;5095637;28;20028;-72
2021/12/28 07:52:02;;;;;;;19.98;6.53;;;7.00;99.90;;;;;;5094438;28;20369;-72
2021/12/28 07:54:28;;;;;;;26.02;7.47;;;7.10;99.90;;;;;;5093958;28;20060;-72
2021/12/28 07:56:53;;;;;;;17.15;6.68;;;7.10;99.90;;;;;;5094008;28;20056;-73
2021/12/28 07:59:19;;;;;;;23.98;7.40;;;7.00;99.90;;;;;;5095426;28;20070;-72
2021/12/28 08:01:44;;;;;;;21.00;6.55;;;7.00;99.90;;;;;;5094197;28;20560;-73
2021/12/28 08:04:10;;;;;;;21.13;5.90;;;6.80;99.90;;;;;;5094166;28;20357;-73
2021/12/28 08:06:35;;;;;;;25.98;7.07;;;6.70;99.90;;;;;;5076833;28;20102;-72
2021/12/28 08:09:01;;;;;;;18.42;7.07;;;6.70;99.90;;;;;;5093397;28;20112;-72
2021/12/28 08:11:27;;;;;;;19.90;6.63;;;6.70;99.90;;;;;;5093339;28;20492;-72
2021/12/28 08:13:53;;;;;;;29.40;7.47;;;6.70;99.90;;;;;;5093123;28;20040;-72
2021/12/28 08:16:18;;;;;;;23.48;7.55;;;6.80;99.90;;;;;;5093220;28;20035;-73
2021/12/28 08:18:44;;;;;;;24.48;8.13;;;7.00;99.90;;;;;;5092963;28;20024;-73
2021/12/28 08:21:09;;;;;;;19.13;8.05;;;7.90;99.90;;;;;;5092792;28;20034;-73
2021/12/28 08:23:35;;;;;;;13.77;6.32;;;9.40;99.90;;;;;;5093525;28;20099;-73
2021/12/28 08:26:00;;;;;;;15.52;5.40;;;10.70;99.90;;;;;;5076744;28;20050;-73
2021/12/28 08:28:26;;;;;;;16.75;5.60;;;11.70;99.90;;;;;;5094639;28;20043;-73
2021/12/28 08:30:51;;;;;;;20.77;5.30;;;12.50;99.90;;;;;;5074758;28;20118;-73
2021/12/28 08:33:17;;;;;;;10.57;4.35;;;12.80;99.90;;;;;;5056149;28;20029;-73
2021/12/28 08:35:43;;;;;;;11.00;4.38;;;12.20;99.90;;;;;;5072589;28;20049;-73
2021/12/28 08:38:10;;;;;;;12.10;3.90;;;11.60;99.90;;;;;;5081745;28;20422;-74
2021/12/28 08:40:36;;;;;;;9.18;3.83;;;11.60;99.90;;;;;;5075796;28;20020;-74
2021/12/28 08:43:02;;;;;;;7.85;3.70;;;12.10;99.90;;;;;;5075145;28;20077;-74
2021/12/28 08:45:28;;;;;;;8.38;3.22;;;12.60;99.90;;;;;;5092432;28;20115;-73
2021/12/28 08:47:54;;;;;;;11.43;3.80;;;12.40;99.90;;;;;;5092714;28;20025;-73
2021/12/28 08:50:20;;;;;;;6.68;2.88;;;12.60;99.90;;;;;;5092490;28;20032;-73
2021/12/28 08:52:47;;;;;;;5.88;2.95;;;13.10;99.90;;;;;;5092292;28;20059;-74
2021/12/28 08:55:12;;;;;;;7.38;2.85;;;14.10;99.90;;;;;;5056803;28;20048;-74
2021/12/28 08:57:38;;;;;;;4.50;2.38;;;14.80;99.90;;;;;;5092592;28;20489;-74
2021/12/28 09:00:08;;;;;;;5.40;2.30;;;15.50;99.90;;;;;;5093588;28;20103;-73
2021/12/28 09:02:33;;;;;;;8.35;2.35;;;15.50;99.90;;;;;;5093710;28;20493;-74
2021/12/28 09:04:59;;;;;;;7.65;2.47;;;14.90;99.90;;;;;;5075700;28;20032;-74
2021/12/28 09:07:25;;;;;;;3.90;1.92;;;14.10;99.90;;;;;;5092420;28;20081;-74
2021/12/28 09:09:50;;;;;;;6.38;1.63;;;13.30;99.90;;;;;;5094250;28;20031;-74
2021/12/28 09:12:16;;;;;;;3.75;1.60;;;13.90;99.90;;;;;;5092165;28;20085;-74
2021/12/28 09:14:41;;;;;;;2.75;1.55;;;14.20;99.90;;;;;;5071218;28;20100;-74
2021/12/28 09:17:07;;;;;;;3.20;1.40;;;13.80;99.90;;;;;;5072030;28;20021;-74
2021/12/28 09:19:33;;;;;;;3.65;1.52;;;13.10;99.90;;;;;;5071961;28;20025;-74
2021/12/28 09:21:59;;;;;;;3.22;1.42;;;12.40;99.90;;;;;;5072129;28;20028;-74
2021/12/28 09:24:25;;;;;;;2.92;1.42;;;11.80;99.90;;;;;;5084006;28;20035;-73
2021/12/28 09:26:51;;;;;;;2.10;1.30;;;11.40;99.90;;;;;;5091450;28;20062;-73
2021/12/28 09:29:17;;;;;;;1.88;1.30;;;11.10;99.90;;;;;;5089790;28;20028;-74
2021/12/28 09:31:42;;;;;;;3.47;1.48;;;10.90;99.90;;;;;;5094612;28;20039;-73
2021/12/28 09:34:08;;;;;;;3.15;1.30;;;10.70;99.90;;;;;;5096034;28;20030;-74
2021/12/28 09:36:34;;;;;;;3.40;1.30;;;10.70;99.90;;;;;;5076399;28;20094;-74
2021/12/28 09:38:59;;;;;;;2.40;1.23;;;10.50;99.90;;;;;;5095172;28;20067;-74
2021/12/28 09:41:25;;;;;;;4.10;1.17;;;10.40;99.90;;;;;;5096124;28;20073;-74
2021/12/28 09:43:50;;;;;;;2.30;1.33;;;10.30;99.90;;;;;;5096220;28;20024;-74
2021/12/28 09:46:16;;;;;;;1.75;1.10;;;10.30;99.90;;;;;;5096566;28;20035;-73
2021/12/28 09:48:42;;;;;;;1.92;1.30;;;10.20;99.90;;;;;;5097638;28;20538;-74
2021/12/28 09:51:08;;;;;;;2.05;0.90;;;10.20;99.90;;;;;;5097682;28;20028;-73
2021/12/28 09:53:35;;;;;;;2.13;1.20;;;10.20;99.90;;;;;;5075197;28;20033;-73
2021/12/28 09:56:01;;;;;;;4.28;1.30;;;10.10;99.90;;;;;;5083006;28;20028;-74
2021/12/28 09:58:27;;;;;;;3.63;1.23;;;10.10;99.90;;;;;;5094395;28;20027;-74
2021/12/28 10:00:52;;;;;;;2.22;1.25;;;10.10;99.90;;;;;;5096869;28;20021;-74
2021/12/28 10:03:18;;;;;;;2.45;1.10;;;10.30;99.90;;;;;;5078047;28;20016;-74
2021/12/28 10:05:44;;;;;;;1.60;0.85;;;10.50;99.90;;;;;;5097398;28;20028;-74
2021/12/28 10:08:13;;;;;;;2.15;1.05;;;11.20;99.90;;;;;;5098625;28;20039;-74
2021/12/28 10:10:43;;;;;;;2.30;0.80;;;11.50;99.90;;;;;;5096956;28;20102;-75
2021/12/28 10:13:16;;;;;;;2.55;1.20;;;11.40;99.90;;;;;;5095789;28;20058;-74
2021/12/28 10:15:44;;;;;;;1.90;1.30;;;11.30;99.90;;;;;;5094698;28;20382;-74
2021/12/28 10:18:12;;;;;;;4.40;1.80;;;11.10;99.90;;;;;;5095415;28;20032;-73
2021/12/28 10:20:41;;;;;;;1.95;1.30;;;10.90;99.90;;;;;;5095819;28;20047;-74
2021/12/28 10:23:10;;;;;;;1.77;1.30;;;10.60;99.90;;;;;;5093028;28;20024;-74
2021/12/28 10:25:47;;;;;;;2.97;1.40;;;10.50;99.90;;;;;;5078174;28;20020;-74
2021/12/28 10:28:16;;;;;;;1.80;1.20;;;10.50;99.90;;;;;;5094991;28;20365;-74
2021/12/28 10:30:47;;;;;;;1.92;1.10;;;10.40;99.90;;;;;;5094947;28;20028;-74
2021/12/28 10:33:17;;;;;;;1.98;1.17;;;10.30;99.90;;;;;;5074491;28;20033;-74
2021/12/28 10:35:46;;;;;;;2.67;1.33;;;10.30;99.90;;;;;;5084491;28;20033;-74
2021/12/28 10:38:16;;;;;;;3.10;1.17;;;10.40;99.90;;;;;;5092898;28;20012;-74
2021/12/28 10:40:45;;;;;;;1.85;1.00;;;10.50;99.90;;;;;;5096920;28;20106;-74
2021/12/28 10:43:13;;;;;;;2.95;1.58;;;10.90;99.90;;;;;;5095238;28;20016;-74
2021/12/28 10:45:45;;;;;;;1.75;1.40;;;11.00;99.90;;;;;;5095044;28;20040;-74
2021/12/28 10:51:05;;;;;;;3.40;1.42;;;10.80;99.90;;;;;;5071220;28;20390;-74
2021/12/28 10:53:43;;;;;;;1.77;1.38;;;10.70;99.90;;;;;;5055822;28;20022;-74
2021/12/28 10:56:10;;;;;;;1.83;1.30;;;10.70;99.90;;;;;;5034546;28;20452;-74
2021/12/28 10:58:41;;;;;;;2.05;1.35;;;10.60;99.90;;;;;;5035139;28;20492;-74
2021/12/28 11:01:10;;;;;;;2.50;1.30;;;10.70;99.90;;;;;;5051189;28;20025;-74
2021/12/28 11:03:40;;;;;;;1.35;1.25;;;10.70;99.90;;;;;;5066056;28;20075;-74
2021/12/28 11:06:11;;;;;;;1.95;1.08;;;10.70;99.90;;;;;;5062715;28;20064;-74
2021/12/28 11:08:37;;;;;;;1.85;1.10;;;10.70;99.90;;;;;;5048526;28;20466;-74
2021/12/28 11:11:07;;;;;;;3.67;1.00;;;10.70;99.90;;;;;;5060645;28;20020;-73
2021/12/28 11:13:33;;;;;;;4.47;1.30;;;10.70;99.90;;;;;;5038650;28;20378;-73
2021/12/28 11:15:59;;;;;;;2.13;1.30;;;10.70;99.90;;;;;;5059796;28;20112;-74
2021/12/28 11:18:33;;;;;;;2.67;1.00;;;10.60;99.90;;;;;;5049179;28;20013;-74
2021/12/28 11:21:22;;;;;;;1.77;1.05;;;10.70;99.90;;;;;;5066672;28;20034;-74
2021/12/28 11:23:52;;;;;;;1.60;1.08;;;10.70;99.90;;;;;;5074230;28;20025;-74
2021/12/28 11:26:22;;;;;;;2.85;1.20;;;10.70;99.90;;;;;;5046105;28;20030;-74
2021/12/28 11:28:57;;;;;;;2.35;1.30;;;10.60;99.90;;;;;;5082730;28;20025;-73
2021/12/28 11:31:25;;;;;;;2.97;1.20;;;10.60;99.90;;;;;;5082705;28;20030;-73
2021/12/28 11:33:55;;;;;;;3.28;1.42;;;10.60;99.90;;;;;;5081954;28;20485;-73
2021/12/28 11:36:23;;;;;;;1.50;1.13;;;10.60;99.90;;;;;;5070478;28;20028;-74
2021/12/28 11:38:50;;;;;;;1.98;1.42;;;10.50;99.90;;;;;;5050149;28;20033;-74
2021/12/28 11:41:17;;;;;;;1.73;1.30;;;10.60;99.90;;;;;;5047397;28;20108;-74
2021/12/28 11:43:43;;;;;;;2.40;1.25;;;10.50;99.90;;;;;;5032098;28;20029;-73
2021/12/28 11:46:10;;;;;;;3.15;1.50;;;10.40;99.90;;;;;;5028715;28;20111;-73
2021/12/28 11:48:37;;;;;;;6.88;1.65;;;10.40;99.90;;;;;;5061145;28;20121;-73
2021/12/28 11:51:04;;;;;;;2.70;1.38;;;10.30;99.90;;;;;;5047613;28;20029;-73
2021/12/28 11:53:30;;;;;;;3.30;1.40;;;10.20;99.90;;;;;;5048223;28;20017;-73
2021/12/28 11:55:58;;;;;;;2.42;1.27;;;10.20;99.90;;;;;;5064995;28;20025;-73
2021/12/28 11:58:47;;;;;;;1.58;1.02;;;10.20;99.90;;;;;;5060696;28;20098;-73
2021/12/28 12:01:35;;;;;;;2.80;1.02;;;10.20;99.90;;;;;;5022082;28;20391;-73
2021/12/28 12:04:00;;;;;;;2.13;0.90;;;10.20;99.90;;;;;;5016714;28;20391;-73
2021/12/28 12:07:06;;;;;;;3.22;0.90;;;10.20;99.90;;;;;;5034723;28;20021;-73
2021/12/28 12:09:33;;;;;;;0.82;0.82;;;10.30;99.90;;;;;;5046894;28;20075;-73
2021/12/28 12:12:18;;;;;;;1.70;0.90;;;10.30;99.90;;;;;;5034812;28;20017;-73
2021/12/28 12:20:23;;;;;;;1.67;0.70;;;10.30;99.90;;;;;;5110173;27;20535;-67
2021/12/28 12:22:54;;;;;;;2.33;0.90;;;10.30;99.90;;;;;;5110662;28;20077;-67
2021/12/28 12:25:23;;;;;;;0.75;0.60;;;10.30;99.90;;;;;;5109731;28;20516;-67
2021/12/28 12:27:52;;;;;;;1.95;0.80;;;10.30;99.90;;;;;;5092406;28;20026;-68
2021/12/28 12:40:58;;;;;;;2.28;0.75;;;10.50;99.90;;;;;;5117173;27;20307;-67
2021/12/28 12:43:38;;;;;;;1.40;0.90;;;10.50;99.90;;;;;;5110324;28;20041;-68
2021/12/28 12:51:24;;;;;;;2.20;0.82;;;10.50;99.90;;;;;;5115767;27;20318;-68
2021/12/28 12:54:13;;;;;;;1.10;0.90;;;10.50;99.90;;;;;;5125663;28;20012;-67
2021/12/28 12:56:43;;;;;;;1.35;0.82;;;10.50;99.90;;;;;;5112094;28;20050;-69
2021/12/28 12:59:27;;;;;;;1.38;0.70;;;10.50;99.90;;;;;;5110086;28;20020;-66
2021/12/28 13:01:57;;;;;;;2.15;0.70;;;10.50;99.90;;;;;;5129618;28;20027;-68
2021/12/28 13:09:57;;;;;;;3.78;0.90;;;10.40;99.90;;;;;;5112191;27;20367;-68
2021/12/28 13:12:24;;;;;;;1.85;0.95;;;10.30;99.90;;;;;;5114391;27;20043;-69
2021/12/28 13:14:50;;;;;;;1.42;1.10;;;10.20;99.90;;;;;;5109955;28;20027;-69
2021/12/28 13:17:22;;;;;;;1.98;0.93;;;10.10;99.90;;;;;;5110589;28;20024;-69